Time;durP1;ratioP1;P1;durP2;ratioP2;P2;SDS_P1;SDS_P2;PMS_P1;PMS_P2;Temp;Humidity;BMP_temperature;BMP_pressure;BME280_temperature;BME280_humidity;BME280_pressure;Samples;Min_cycle;Max_cycle;Signal;HPM_P1;HPM_P2
2024/03/12 00:00:14;;;;;;;2.53;1.70;;;5.70;99.90;;;;;;5130809;27;20391;-74
2024/03/12 00:02:44;;;;;;;2.23;1.70;;;5.70;99.90;;;;;;5112571;28;20035;-74
2024/03/12 00:05:18;;;;;;;3.10;1.80;;;5.70;99.90;;;;;;5112668;28;20040;-74
2024/03/12 00:07:48;;;;;;;4.00;2.13;;;5.70;99.90;;;;;;5112846;28;20047;-75
2024/03/12 00:10:22;;;;;;;2.80;1.70;;;5.70;99.90;;;;;;5113000;28;20464;-75
2024/03/12 00:12:49;;;;;;;4.17;1.90;;;5.80;99.90;;;;;;5114871;27;20029;-74
2024/03/12 00:15:17;;;;;;;3.20;1.63;;;5.70;99.90;;;;;;5133084;27;20027;-74
2024/03/12 00:17:43;;;;;;;6.03;2.10;;;5.80;99.90;;;;;;5133543;27;20080;-74
2024/03/12 00:20:18;;;;;;;3.20;1.80;;;5.70;99.90;;;;;;5133321;27;20023;-74
2024/03/12 00:22:48;;;;;;;5.57;2.15;;;5.70;99.90;;;;;;5133535;27;20097;-74
2024/03/12 00:25:19;;;;;;;3.73;2.30;;;5.70;99.90;;;;;;5132769;27;20074;-74
2024/03/12 00:27:45;;;;;;;5.40;1.87;;;5.70;99.90;;;;;;5126831;27;20023;-74
2024/03/12 00:30:11;;;;;;;3.17;2.20;;;5.70;99.90;;;;;;5112972;28;20084;-74
2024/03/12 00:32:47;;;;;;;2.60;1.83;;;5.70;99.90;;;;;;5112777;28;20052;-73
2024/03/12 00:35:14;;;;;;;4.03;2.30;;;5.70;99.90;;;;;;5112179;28;20102;-74
2024/03/12 00:37:41;;;;;;;6.30;2.43;;;5.70;99.90;;;;;;5112457;28;20024;-74
2024/03/12 00:40:13;;;;;;;3.53;2.00;;;5.70;99.90;;;;;;5110781;28;20377;-74
2024/03/12 00:42:43;;;;;;;3.30;2.10;;;5.70;99.90;;;;;;5100981;28;20495;-74
2024/03/12 00:45:11;;;;;;;3.13;2.13;;;5.70;99.90;;;;;;5091830;28;20032;-74
2024/03/12 00:47:43;;;;;;;8.20;2.50;;;5.70;99.90;;;;;;5092159;28;20118;-74
2024/03/12 00:50:11;;;;;;;4.60;2.60;;;5.70;99.90;;;;;;5118269;27;20015;-75
2024/03/12 00:52:37;;;;;;;4.30;2.27;;;5.70;99.90;;;;;;5133046;27;20023;-74
2024/03/12 00:55:04;;;;;;;4.40;2.40;;;5.60;99.90;;;;;;5132749;27;20119;-74
2024/03/12 00:57:34;;;;;;;4.20;2.40;;;5.60;99.90;;;;;;5133073;27;20042;-74
2024/03/12 00:59:59;;;;;;;3.63;2.50;;;5.60;99.90;;;;;;5133539;27;20027;-74
2024/03/12 01:02:25;;;;;;;6.33;2.43;;;5.50;99.90;;;;;;5132978;27;20023;-75
2024/03/12 01:04:52;;;;;;;4.47;2.43;;;5.50;99.90;;;;;;5132476;27;20035;-74
2024/03/12 01:07:19;;;;;;;3.80;2.17;;;5.50;99.90;;;;;;5132969;27;20106;-74
2024/03/12 01:09:48;;;;;;;4.80;2.50;;;5.60;99.90;;;;;;5132975;27;20019;-74
2024/03/12 01:12:13;;;;;;;5.67;2.47;;;5.50;99.90;;;;;;5133092;27;20031;-74
2024/03/12 01:14:39;;;;;;;3.70;2.20;;;5.60;99.90;;;;;;5131952;27;20038;-74
2024/03/12 01:17:08;;;;;;;3.67;2.30;;;5.60;99.90;;;;;;5132558;27;20035;-74
2024/03/12 01:19:37;;;;;;;3.77;2.60;;;5.60;99.90;;;;;;5132462;27;20026;-74
2024/03/12 01:22:04;;;;;;;5.27;2.53;;;5.60;99.90;;;;;;5132262;27;20435;-74
2024/03/12 01:24:33;;;;;;;4.00;2.30;;;5.60;99.90;;;;;;5132260;27;20391;-74
2024/03/12 01:27:00;;;;;;;4.87;2.63;;;5.60;99.90;;;;;;5132560;27;20038;-74
2024/03/12 01:29:26;;;;;;;5.80;2.60;;;5.70;99.90;;;;;;5132395;28;20030;-74
2024/03/12 01:31:52;;;;;;;8.30;2.80;;;5.70;99.90;;;;;;5132211;28;20027;-74
2024/03/12 01:34:19;;;;;;;5.83;2.50;;;5.70;99.90;;;;;;5132390;28;20378;-74
2024/03/12 01:36:47;;;;;;;5.17;2.50;;;5.70;99.90;;;;;;5132196;27;20031;-75
2024/03/12 01:39:16;;;;;;;3.43;2.30;;;5.70;99.90;;;;;;5132404;28;20098;-75
2024/03/12 01:41:42;;;;;;;4.13;2.63;;;5.70;99.90;;;;;;5108290;28;20032;-74
2024/03/12 01:44:08;;;;;;;3.50;2.50;;;5.70;99.90;;;;;;5091109;28;20048;-74
2024/03/12 01:46:35;;;;;;;3.53;2.47;;;5.70;99.90;;;;;;5090890;28;20103;-74
2024/03/12 01:49:05;;;;;;;5.03;2.63;;;5.80;99.90;;;;;;5098059;28;20110;-74
2024/03/12 01:51:31;;;;;;;3.27;2.20;;;5.80;99.90;;;;;;5132366;27;20023;-74
2024/03/12 01:53:57;;;;;;;2.97;2.27;;;5.80;99.90;;;;;;5132065;28;20019;-74
2024/03/12 01:56:26;;;;;;;3.30;2.20;;;5.80;99.90;;;;;;5133715;27;20028;-75
2024/03/12 01:58:52;;;;;;;5.07;2.30;;;5.70;99.90;;;;;;5135867;27;20118;-74
2024/03/12 02:01:20;;;;;;;4.20;2.40;;;5.70;99.90;;;;;;5136252;27;20511;-74
2024/03/12 02:03:48;;;;;;;3.10;2.17;;;5.70;99.90;;;;;;5135970;27;20034;-74
2024/03/12 02:06:13;;;;;;;3.40;2.43;;;5.70;99.90;;;;;;5135727;27;20027;-73
2024/03/12 02:08:40;;;;;;;3.80;2.10;;;5.70;99.90;;;;;;5118036;27;20120;-74
2024/03/12 02:11:05;;;;;;;3.60;2.40;;;5.70;99.90;;;;;;5115002;28;20022;-74
2024/03/12 02:13:31;;;;;;;3.30;2.30;;;5.70;99.90;;;;;;5114808;28;20016;-74
2024/03/12 02:15:57;;;;;;;4.70;2.37;;;5.70;99.90;;;;;;5114746;28;20058;-74
2024/03/12 02:18:23;;;;;;;4.23;2.33;;;5.70;99.90;;;;;;5114891;28;20024;-75
2024/03/12 02:20:49;;;;;;;4.53;2.30;;;5.70;99.90;;;;;;5115466;28;20031;-74
2024/03/12 02:23:14;;;;;;;11.10;2.77;;;5.70;99.90;;;;;;5115475;28;20045;-74
2024/03/12 02:25:42;;;;;;;5.80;2.63;;;5.80;99.90;;;;;;5114702;28;20027;-74
2024/03/12 02:28:08;;;;;;;4.13;2.53;;;5.70;99.90;;;;;;5114849;28;20050;-75
2024/03/12 02:30:33;;;;;;;4.07;2.60;;;5.70;99.90;;;;;;5114548;28;20102;-74
2024/03/12 02:33:01;;;;;;;3.53;2.40;;;5.80;99.90;;;;;;5114254;28;20429;-74
2024/03/12 02:35:27;;;;;;;4.83;2.40;;;5.80;99.90;;;;;;5114148;28;20095;-75
2024/03/12 02:37:52;;;;;;;3.70;2.30;;;5.80;99.90;;;;;;5114392;28;20063;-74
2024/03/12 02:40:18;;;;;;;3.67;2.50;;;5.80;99.90;;;;;;5111493;28;20066;-74
2024/03/12 02:42:44;;;;;;;5.33;2.33;;;5.90;99.90;;;;;;5103028;28;20024;-74
2024/03/12 02:45:14;;;;;;;5.13;2.30;;;5.90;99.90;;;;;;5094130;28;20035;-74
2024/03/12 02:47:40;;;;;;;5.73;2.63;;;5.90;99.90;;;;;;5094431;28;20032;-74
2024/03/12 02:50:06;;;;;;;5.83;2.40;;;5.90;99.90;;;;;;5119562;27;20039;-74
2024/03/12 02:52:32;;;;;;;5.10;2.47;;;5.90;99.90;;;;;;5135034;27;20019;-73
2024/03/12 02:54:57;;;;;;;4.67;2.37;;;6.00;99.90;;;;;;5134624;27;20475;-74
2024/03/12 02:57:23;;;;;;;5.23;2.57;;;6.00;99.90;;;;;;5134872;27;20023;-75
2024/03/12 02:59:48;;;;;;;7.73;4.13;;;6.00;99.90;;;;;;5134966;27;20127;-74
2024/03/12 03:02:14;;;;;;;4.53;2.67;;;6.00;99.90;;;;;;5135429;27;20020;-73
2024/03/12 03:04:39;;;;;;;3.77;2.60;;;6.00;99.90;;;;;;5134387;27;20038;-74
2024/03/12 03:07:05;;;;;;;4.93;2.80;;;6.00;99.90;;;;;;5133892;27;20023;-75
2024/03/12 03:09:31;;;;;;;3.93;2.80;;;6.00;99.90;;;;;;5134850;27;20031;-74
2024/03/12 03:11:58;;;;;;;3.73;2.50;;;6.00;99.90;;;;;;5134712;27;20435;-74
2024/03/12 03:14:23;;;;;;;4.07;2.20;;;6.10;99.90;;;;;;5134561;27;20106;-75
2024/03/12 03:16:49;;;;;;;4.30;2.90;;;6.10;99.90;;;;;;5134646;27;20067;-74
2024/03/12 03:19:14;;;;;;;4.03;2.50;;;6.20;99.90;;;;;;5134698;27;20030;-74
2024/03/12 03:21:40;;;;;;;4.00;2.60;;;6.20;99.90;;;;;;5134744;27;20026;-74
2024/03/12 03:24:05;;;;;;;7.37;2.50;;;6.30;99.90;;;;;;5134690;27;20642;-74
2024/03/12 03:26:31;;;;;;;3.50;2.53;;;6.40;99.90;;;;;;5134150;27;20038;-75
2024/03/12 03:28:57;;;;;;;3.73;2.50;;;6.40;99.90;;;;;;5134489;27;20095;-75
2024/03/12 03:31:25;;;;;;;4.27;2.87;;;6.50;99.90;;;;;;5134656;27;20019;-74
2024/03/12 03:33:50;;;;;;;6.07;3.00;;;6.40;99.90;;;;;;5134222;27;20054;-73
2024/03/12 03:36:16;;;;;;;3.77;2.70;;;6.50;99.90;;;;;;5134035;27;20495;-74
2024/03/12 03:38:42;;;;;;;6.57;2.93;;;6.50;99.90;;;;;;5134126;27;20048;-75
2024/03/12 03:41:09;;;;;;;3.57;2.43;;;6.50;99.90;;;;;;5114761;27;20023;-74
2024/03/12 03:43:35;;;;;;;5.33;2.90;;;6.50;99.90;;;;;;5098225;28;20141;-74
2024/03/12 03:46:01;;;;;;;3.47;2.57;;;6.50;99.90;;;;;;5092919;28;20032;-74
2024/03/12 03:48:27;;;;;;;3.27;2.37;;;6.50;99.90;;;;;;5092945;28;20380;-74
2024/03/12 03:50:53;;;;;;;6.67;2.50;;;6.50;99.90;;;;;;5131222;27;20471;-74
2024/03/12 03:53:18;;;;;;;3.00;2.30;;;6.50;99.90;;;;;;5133797;27;20034;-74
2024/03/12 03:55:45;;;;;;;5.70;2.70;;;6.50;99.90;;;;;;5133525;27;20024;-75
2024/03/12 03:58:10;;;;;;;4.30;2.90;;;6.50;99.90;;;;;;5133695;27;20031;-75
2024/03/12 04:00:37;;;;;;;3.33;2.80;;;6.50;99.90;;;;;;5133963;27;20049;-74
2024/03/12 04:03:03;;;;;;;3.40;2.60;;;6.50;99.90;;;;;;5133869;27;20023;-74
2024/03/12 04:05:29;;;;;;;3.63;2.50;;;6.50;99.90;;;;;;5133227;27;20053;-75
2024/03/12 04:07:54;;;;;;;3.33;2.70;;;6.40;99.90;;;;;;5133674;27;20388;-74
2024/03/12 04:10:22;;;;;;;5.10;2.60;;;6.50;99.90;;;;;;5133532;27;20459;-74
2024/03/12 04:12:48;;;;;;;4.43;2.40;;;6.40;99.90;;;;;;5133688;27;20027;-74
2024/03/12 04:15:14;;;;;;;5.13;2.50;;;6.50;99.90;;;;;;5133328;27;20101;-74
2024/03/12 04:17:43;;;;;;;4.60;3.37;;;6.50;99.90;;;;;;5133308;27;20429;-74
2024/03/12 04:20:10;;;;;;;4.10;2.73;;;6.50;99.90;;;;;;5133368;27;20050;-74
2024/03/12 04:22:39;;;;;;;4.67;2.70;;;6.50;99.90;;;;;;5133274;27;20035;-74
2024/03/12 04:25:07;;;;;;;3.60;2.80;;;6.50;99.90;;;;;;5133120;27;20060;-74
2024/03/12 04:27:32;;;;;;;4.90;2.70;;;6.50;99.90;;;;;;5133505;27;20321;-75
2024/03/12 04:29:58;;;;;;;4.73;3.00;;;6.60;99.90;;;;;;5133328;27;20035;-74
2024/03/12 04:32:27;;;;;;;3.70;3.10;;;6.50;99.90;;;;;;5133097;27;20104;-75
2024/03/12 04:34:54;;;;;;;4.40;2.50;;;6.50;99.90;;;;;;5132863;27;20050;-74
2024/03/12 04:37:19;;;;;;;4.47;2.77;;;6.50;99.90;;;;;;5132907;27;20451;-74
2024/03/12 04:39:45;;;;;;;4.63;2.93;;;6.50;99.90;;;;;;5131210;27;20026;-74
2024/03/12 04:42:10;;;;;;;4.27;3.30;;;6.50;99.90;;;;;;5103783;28;20051;-74
2024/03/12 04:44:36;;;;;;;6.80;3.37;;;6.50;99.90;;;;;;5091564;28;20380;-74
2024/03/12 04:47:01;;;;;;;5.73;3.27;;;6.50;99.90;;;;;;5092239;28;20032;-73
2024/03/12 04:49:27;;;;;;;5.30;3.03;;;6.40;99.90;;;;;;5098436;27;20053;-74
2024/03/12 04:51:53;;;;;;;4.97;3.77;;;6.40;99.90;;;;;;5112357;28;20022;-75
2024/03/12 04:54:19;;;;;;;3.60;3.10;;;6.40;99.90;;;;;;5112322;28;20080;-74
2024/03/12 04:56:50;;;;;;;4.43;3.37;;;6.40;99.90;;;;;;5112205;28;20032;-74
2024/03/12 04:59:16;;;;;;;5.37;3.17;;;6.40;99.90;;;;;;5112260;28;20020;-74
2024/03/12 05:01:47;;;;;;;4.40;3.17;;;6.40;99.90;;;;;;5111857;28;20372;-74
2024/03/12 05:04:13;;;;;;;3.90;2.90;;;6.40;99.90;;;;;;5109197;28;20057;-75
2024/03/12 05:06:39;;;;;;;5.73;3.37;;;6.40;99.90;;;;;;5111026;28;20031;-74
2024/03/12 05:09:06;;;;;;;4.50;3.27;;;6.60;99.90;;;;;;5111425;28;20551;-74
2024/03/12 05:11:38;;;;;;;3.70;3.30;;;6.60;99.90;;;;;;5110912;28;20059;-74
2024/03/12 05:14:03;;;;;;;7.73;3.67;;;6.60;99.90;;;;;;5112144;28;20373;-75
2024/03/12 05:16:31;;;;;;;5.97;3.43;;;6.60;99.90;;;;;;5111823;28;20149;-74
2024/03/12 05:18:57;;;;;;;5.13;3.27;;;6.60;99.90;;;;;;5109082;28;20023;-74
2024/03/12 05:21:22;;;;;;;7.67;3.83;;;6.50;99.90;;;;;;5111630;28;20015;-75
2024/03/12 05:23:51;;;;;;;4.70;3.30;;;6.50;99.90;;;;;;5111045;28;20019;-74
2024/03/12 05:26:26;;;;;;;4.97;3.73;;;6.40;99.90;;;;;;5108242;28;20030;-74
2024/03/12 05:28:52;;;;;;;4.60;3.72;;;6.40;99.90;;;;;;5110715;28;20039;-74
2024/03/12 05:31:29;;;;;;;4.77;3.73;;;6.40;99.90;;;;;;5110320;28;20027;-74
2024/03/12 05:34:03;;;;;;;4.37;3.60;;;6.50;99.90;;;;;;5111182;28;20020;-74
2024/03/12 05:36:40;;;;;;;7.07;4.20;;;6.40;99.90;;;;;;5110842;28;20043;-75
2024/03/12 05:39:20;;;;;;;5.73;3.60;;;6.40;99.90;;;;;;5110971;28;20027;-73
2024/03/12 05:41:49;;;;;;;4.03;3.63;;;6.40;99.90;;;;;;5103721;28;20035;-74
2024/03/12 05:49:43;;;;;;;5.60;3.90;;;6.40;99.90;;;;;;5110895;28;20115;-74
2024/03/12 05:52:10;;;;;;;4.37;3.97;;;6.40;99.90;;;;;;5115878;27;20103;-74
2024/03/12 05:54:35;;;;;;;6.30;4.20;;;6.40;99.90;;;;;;5110288;28;20682;-75
2024/03/12 05:57:01;;;;;;;5.57;4.03;;;6.50;99.90;;;;;;5113911;28;20054;-75
2024/03/12 05:59:27;;;;;;;4.63;3.00;;;6.50;99.90;;;;;;5115380;28;20106;-74
2024/03/12 06:01:52;;;;;;;7.23;4.00;;;6.50;99.90;;;;;;5111262;28;20023;-74
2024/03/12 06:04:18;;;;;;;6.90;4.47;;;6.50;99.90;;;;;;5111647;28;20023;-74
2024/03/12 06:06:45;;;;;;;5.33;3.93;;;6.60;99.90;;;;;;5111095;28;20028;-75
2024/03/12 06:09:10;;;;;;;7.40;4.10;;;6.60;99.90;;;;;;5117793;28;20020;-74
2024/03/12 06:11:36;;;;;;;5.13;3.73;;;6.70;99.90;;;;;;5110761;28;20020;-74
2024/03/12 06:14:05;;;;;;;6.00;3.67;;;6.70;99.90;;;;;;5110677;28;20077;-74
2024/03/12 06:16:31;;;;;;;6.47;4.50;;;6.70;99.90;;;;;;5110752;28;20028;-74
2024/03/12 06:18:57;;;;;;;6.63;3.67;;;6.70;99.90;;;;;;5106766;28;20032;-73
2024/03/12 06:21:22;;;;;;;6.87;4.17;;;6.70;99.90;;;;;;5113125;28;20475;-74
2024/03/12 06:23:48;;;;;;;5.57;3.70;;;6.70;99.90;;;;;;5116058;28;20068;-74
2024/03/12 06:26:14;;;;;;;5.50;3.77;;;6.80;99.90;;;;;;5119520;27;20019;-74
2024/03/12 06:28:39;;;;;;;4.83;3.93;;;6.80;99.90;;;;;;5119101;28;20019;-74
2024/03/12 06:31:05;;;;;;;6.93;3.83;;;6.80;99.90;;;;;;5120553;28;20392;-74
2024/03/12 06:33:31;;;;;;;6.93;3.97;;;6.80;99.90;;;;;;5121373;28;20011;-74
2024/03/12 06:35:56;;;;;;;8.67;3.60;;;6.80;99.90;;;;;;5116779;27;20019;-74
2024/03/12 06:38:22;;;;;;;4.73;3.53;;;6.80;99.90;;;;;;5122677;28;20023;-74
2024/03/12 06:40:48;;;;;;;6.93;3.50;;;6.80;99.90;;;;;;5115259;28;20023;-74
2024/03/12 06:43:17;;;;;;;6.20;3.83;;;6.80;99.90;;;;;;5116459;27;20031;-74
2024/03/12 06:45:43;;;;;;;5.17;3.27;;;6.90;99.90;;;;;;5116502;27;20038;-74
2024/03/12 06:48:08;;;;;;;7.00;3.27;;;6.90;99.90;;;;;;5119862;27;20106;-74
2024/03/12 06:50:34;;;;;;;6.17;4.13;;;6.90;99.90;;;;;;5118738;27;20038;-74
2024/03/12 06:53:00;;;;;;;5.93;3.63;;;7.00;99.90;;;;;;5119398;27;20015;-74
2024/03/12 06:55:26;;;;;;;7.27;3.80;;;7.10;99.90;;;;;;5125616;27;20493;-74
2024/03/12 06:57:59;;;;;;;5.90;3.40;;;7.10;99.90;;;;;;5122398;27;20023;-74
2024/03/12 07:00:37;;;;;;;5.10;3.10;;;7.10;99.90;;;;;;5106911;27;20783;-74
2024/03/12 07:03:06;;;;;;;4.37;3.10;;;7.10;99.90;;;;;;5118793;27;20028;-74
2024/03/12 07:05:36;;;;;;;5.67;3.00;;;7.00;99.90;;;;;;5121294;27;20031;-74
2024/03/12 07:08:05;;;;;;;7.63;3.20;;;7.10;99.90;;;;;;5122408;27;20008;-74
2024/03/12 07:10:31;;;;;;;5.03;3.27;;;7.10;99.90;;;;;;5125224;27;20021;-73
2024/03/12 07:12:59;;;;;;;5.53;3.00;;;7.00;99.90;;;;;;5120144;27;20020;-74
2024/03/12 07:15:27;;;;;;;7.37;3.50;;;7.10;99.90;;;;;;5118757;27;20518;-74
2024/03/12 07:17:53;;;;;;;5.57;3.13;;;7.20;99.90;;;;;;5116107;27;20016;-74
2024/03/12 07:20:20;;;;;;;5.47;3.00;;;7.20;99.90;;;;;;5117429;27;20079;-74
2024/03/12 07:22:46;;;;;;;6.13;2.67;;;7.30;99.90;;;;;;5121714;27;20348;-74
2024/03/12 07:25:11;;;;;;;5.90;2.87;;;7.40;99.90;;;;;;5119862;27;20023;-74
2024/03/12 07:27:41;;;;;;;5.93;3.10;;;7.60;99.90;;;;;;5123859;27;20027;-74
2024/03/12 07:30:09;;;;;;;4.90;2.60;;;7.80;99.90;;;;;;5120828;27;20051;-74
2024/03/12 07:32:35;;;;;;;6.30;2.50;;;7.90;99.90;;;;;;5123983;27;20091;-75
2024/03/12 07:35:01;;;;;;;4.80;2.50;;;8.10;99.90;;;;;;5111579;27;20031;-74
2024/03/12 07:37:27;;;;;;;6.57;2.73;;;8.10;99.90;;;;;;5124545;27;20019;-74
2024/03/12 07:39:53;;;;;;;7.13;3.07;;;8.20;99.90;;;;;;5118876;27;20081;-75
2024/03/12 07:42:19;;;;;;;5.07;2.67;;;8.20;99.90;;;;;;5117965;27;20483;-74
2024/03/12 07:44:47;;;;;;;5.70;2.67;;;8.30;99.90;;;;;;5119680;27;20023;-75
2024/03/12 07:47:13;;;;;;;3.40;2.50;;;8.40;99.90;;;;;;5123055;27;20035;-75
2024/03/12 07:49:39;;;;;;;4.93;2.70;;;8.40;99.90;;;;;;5120698;27;20024;-75
2024/03/12 07:52:05;;;;;;;4.13;2.73;;;8.30;99.90;;;;;;5121669;27;20028;-75
2024/03/12 07:54:31;;;;;;;4.60;2.30;;;8.30;99.90;;;;;;5121024;27;20102;-74
2024/03/12 07:56:57;;;;;;;5.03;2.63;;;8.30;99.90;;;;;;5120906;27;20106;-75
2024/03/12 07:59:23;;;;;;;4.97;2.47;;;8.30;99.90;;;;;;5119812;27;20102;-74
2024/03/12 08:01:57;;;;;;;4.10;2.40;;;8.20;99.90;;;;;;5119799;27;20027;-74
2024/03/12 08:04:25;;;;;;;5.57;2.30;;;8.20;99.90;;;;;;5132253;27;20382;-74
2024/03/12 08:06:51;;;;;;;3.93;2.30;;;8.20;99.90;;;;;;5109717;27;20498;-74
2024/03/12 08:09:18;;;;;;;5.73;2.63;;;8.20;99.90;;;;;;5129123;27;20026;-75
2024/03/12 08:11:44;;;;;;;3.80;2.73;;;8.30;99.90;;;;;;5121670;27;20027;-75
2024/03/12 08:14:10;;;;;;;4.67;2.20;;;8.30;99.90;;;;;;5130259;27;20031;-75
2024/03/12 08:16:36;;;;;;;4.63;2.50;;;8.20;99.90;;;;;;5128672;27;20050;-75
2024/03/12 08:19:02;;;;;;;5.73;2.37;;;8.20;99.90;;;;;;5129692;27;20473;-75
2024/03/12 08:21:28;;;;;;;3.80;2.10;;;8.10;99.90;;;;;;5126234;27;20031;-75
2024/03/12 08:24:00;;;;;;;3.50;2.43;;;8.00;99.90;;;;;;5115884;27;20030;-74
2024/03/12 08:26:31;;;;;;;4.37;2.50;;;8.00;99.90;;;;;;5117606;27;20779;-74
2024/03/12 08:28:57;;;;;;;5.00;2.30;;;8.00;99.90;;;;;;5129096;27;20475;-74
2024/03/12 08:31:23;;;;;;;4.97;2.60;;;8.00;99.90;;;;;;5131153;27;20094;-74
2024/03/12 08:33:49;;;;;;;6.33;2.60;;;8.00;99.90;;;;;;5131236;27;20026;-74
2024/03/12 08:36:15;;;;;;;4.10;2.57;;;8.00;99.90;;;;;;5131858;27;20030;-74
2024/03/12 08:38:41;;;;;;;4.90;2.40;;;8.10;99.90;;;;;;5128815;27;20136;-74
2024/03/12 08:41:09;;;;;;;5.20;2.30;;;8.10;99.90;;;;;;5120647;27;20031;-74
2024/03/12 08:43:38;;;;;;;4.57;2.50;;;8.20;99.90;;;;;;5127772;27;20111;-74
2024/03/12 08:46:06;;;;;;;4.67;2.50;;;8.20;99.90;;;;;;5131309;27;20392;-75
2024/03/12 08:48:33;;;;;;;3.93;2.33;;;8.20;99.90;;;;;;5128074;27;20022;-75
2024/03/12 08:50:58;;;;;;;3.93;2.10;;;8.30;99.90;;;;;;5119905;27;20020;-75
2024/03/12 08:53:24;;;;;;;3.17;2.40;;;8.40;99.90;;;;;;5129865;27;20026;-75
2024/03/12 08:55:49;;;;;;;4.90;2.37;;;8.40;99.90;;;;;;5118727;27;20032;-74
2024/03/12 08:58:16;;;;;;;5.53;2.77;;;8.50;99.90;;;;;;5126494;27;20066;-75
2024/03/12 09:00:41;;;;;;;5.73;2.30;;;8.60;99.90;;;;;;5128119;27;20023;-75
2024/03/12 09:03:07;;;;;;;5.10;2.20;;;8.50;99.90;;;;;;5132010;27;20463;-75
2024/03/12 09:05:34;;;;;;;4.00;2.30;;;8.40;99.90;;;;;;5130282;27;20049;-75
2024/03/12 09:08:03;;;;;;;5.40;2.40;;;8.50;99.90;;;;;;5128149;27;20447;-75
2024/03/12 09:10:29;;;;;;;4.90;2.30;;;8.50;99.90;;;;;;5128136;27;20087;-74
2024/03/12 09:12:55;;;;;;;5.60;2.60;;;8.60;99.90;;;;;;5132018;27;20023;-76
2024/03/12 09:15:21;;;;;;;4.27;2.30;;;8.70;99.90;;;;;;5131647;27;20649;-75
2024/03/12 09:17:47;;;;;;;5.33;2.30;;;8.80;99.90;;;;;;5129918;27;20024;-75
2024/03/12 09:20:12;;;;;;;3.80;2.20;;;8.80;99.90;;;;;;5130275;27;20019;-82
2024/03/12 09:22:39;;;;;;;5.47;2.23;;;8.90;99.90;;;;;;5132188;27;20015;-74
2024/03/12 09:25:05;;;;;;;3.83;1.90;;;9.10;99.90;;;;;;5117428;27;20034;-75
2024/03/12 09:27:31;;;;;;;5.53;2.23;;;9.10;99.90;;;;;;5131701;27;20035;-75
2024/03/12 09:29:57;;;;;;;5.13;2.30;;;9.10;99.90;;;;;;5127739;28;20095;-75
2024/03/12 09:32:24;;;;;;;5.50;1.83;;;9.30;99.90;;;;;;5131508;28;20031;-75
2024/03/12 09:34:52;;;;;;;8.23;2.43;;;9.30;99.90;;;;;;5131084;27;20043;-74
2024/03/12 09:37:18;;;;;;;7.77;2.30;;;9.30;99.90;;;;;;5131302;27;20490;-74
2024/03/12 09:39:44;;;;;;;3.47;2.20;;;9.30;99.90;;;;;;5125981;28;20020;-75
2024/03/12 09:42:11;;;;;;;4.60;1.80;;;9.20;99.90;;;;;;5116982;28;20023;-75
2024/03/12 09:44:37;;;;;;;3.43;1.70;;;9.30;99.90;;;;;;5128737;27;20522;-75
2024/03/12 09:47:07;;;;;;;4.93;1.87;;;9.20;99.90;;;;;;5132133;28;20024;-74
2024/03/12 09:49:35;;;;;;;3.77;1.83;;;9.20;99.90;;;;;;5123573;28;20091;-74
2024/03/12 09:52:03;;;;;;;3.93;1.63;;;9.10;99.90;;;;;;5131473;27;20399;-74
2024/03/12 09:54:28;;;;;;;5.70;1.80;;;9.10;99.90;;;;;;5130913;27;20019;-75
2024/03/12 09:56:55;;;;;;;6.77;1.90;;;9.00;99.90;;;;;;5131031;28;20501;-74
2024/03/12 09:59:21;;;;;;;5.27;1.90;;;9.00;99.90;;;;;;5117540;28;20036;-75
2024/03/12 10:01:47;;;;;;;3.30;1.63;;;8.90;99.90;;;;;;5115968;27;20099;-75
2024/03/12 10:04:17;;;;;;;3.47;1.90;;;9.00;99.90;;;;;;5115906;28;20031;-75
2024/03/12 10:06:43;;;;;;;6.40;2.00;;;9.00;99.90;;;;;;5115474;27;20329;-74
2024/03/12 10:09:10;;;;;;;3.20;1.63;;;9.00;99.90;;;;;;5115134;28;20026;-74
2024/03/12 10:11:40;;;;;;;4.33;1.93;;;8.90;99.90;;;;;;5124383;28;20462;-74
2024/03/12 10:14:05;;;;;;;3.10;2.10;;;9.00;99.90;;;;;;5126732;28;20019;-75
2024/03/12 10:16:32;;;;;;;4.07;2.20;;;8.90;99.90;;;;;;5131152;27;20451;-74
2024/03/12 10:19:14;;;;;;;3.73;2.50;;;8.90;99.90;;;;;;5134657;27;20030;-75
2024/03/12 10:21:40;;;;;;;4.10;2.47;;;8.90;99.90;;;;;;5135166;27;20023;-74
2024/03/12 10:24:28;;;;;;;5.30;2.30;;;8.90;99.90;;;;;;5126807;27;20030;-75
2024/03/12 10:27:01;;;;;;;3.67;1.97;;;8.90;99.90;;;;;;5134780;27;20387;-75
2024/03/12 10:29:33;;;;;;;9.03;2.30;;;8.90;99.90;;;;;;5133991;27;20468;-75
2024/03/12 10:31:58;;;;;;;3.13;2.07;;;8.80;99.90;;;;;;5132873;27;20027;-75
2024/03/12 10:34:28;;;;;;;4.93;2.40;;;8.90;99.90;;;;;;5134255;27;20050;-74
2024/03/12 10:36:53;;;;;;;3.27;2.10;;;8.80;99.90;;;;;;5134794;27;20019;-75
2024/03/12 10:39:27;;;;;;;3.80;1.90;;;8.70;99.90;;;;;;5133835;27;20026;-74
2024/03/12 10:41:58;;;;;;;3.47;2.10;;;8.70;99.90;;;;;;5124774;27;20382;-75
2024/03/12 10:44:26;;;;;;;4.20;2.00;;;8.70;99.90;;;;;;5132294;27;20034;-74
2024/03/12 10:46:53;;;;;;;3.47;2.00;;;8.70;99.90;;;;;;5134226;27;20038;-74
2024/03/12 10:49:20;;;;;;;4.23;2.00;;;8.80;99.90;;;;;;5133567;27;20106;-75
2024/03/12 10:51:45;;;;;;;3.10;1.90;;;9.00;99.90;;;;;;5134507;27;20038;-75
2024/03/12 10:54:16;;;;;;;3.53;1.80;;;9.20;99.90;;;;;;5134244;27;20486;-75
2024/03/12 10:56:42;;;;;;;2.53;1.60;;;9.30;99.90;;;;;;5133824;27;20487;-75
2024/03/12 10:59:10;;;;;;;4.73;1.80;;;9.40;99.90;;;;;;5121441;27;20026;-75
2024/03/12 11:01:36;;;;;;;4.93;2.07;;;9.40;99.90;;;;;;5130922;27;20027;-74
2024/03/12 11:04:03;;;;;;;2.73;1.77;;;9.50;99.90;;;;;;5134150;27;20102;-75
2024/03/12 11:06:30;;;;;;;2.80;1.60;;;9.60;99.90;;;;;;5115315;27;20562;-74
2024/03/12 11:08:56;;;;;;;4.73;1.80;;;9.50;99.90;;;;;;5132576;27;20023;-74
2024/03/12 11:11:23;;;;;;;3.60;1.80;;;9.50;99.90;;;;;;5133888;27;20031;-75
2024/03/12 11:13:50;;;;;;;4.03;1.53;;;9.30;99.90;;;;;;5132538;27;20046;-74
2024/03/12 11:16:17;;;;;;;2.10;1.70;;;9.20;99.90;;;;;;5113211;28;20019;-75
2024/03/12 11:18:44;;;;;;;2.23;1.57;;;9.10;99.90;;;;;;5114269;28;20027;-74
2024/03/12 11:21:29;;;;;;;2.03;1.40;;;9.10;99.90;;;;;;5113792;28;20532;-74
2024/03/12 11:23:56;;;;;;;3.63;1.75;;;9.10;99.90;;;;;;5113945;28;20160;-76
2024/03/12 11:26:29;;;;;;;4.13;1.70;;;9.10;99.90;;;;;;5113507;28;20032;-75
2024/03/12 11:28:55;;;;;;;2.57;1.50;;;9.10;99.90;;;;;;5113054;28;20027;-74
2024/03/12 11:31:22;;;;;;;2.70;1.90;;;9.30;99.90;;;;;;5113945;28;20024;-74
2024/03/12 11:33:52;;;;;;;3.83;1.70;;;9.30;99.90;;;;;;5114072;28;20024;-74
2024/03/12 11:36:21;;;;;;;3.13;2.00;;;9.40;99.90;;;;;;5113010;28;20027;-74
2024/03/12 11:38:49;;;;;;;2.63;1.60;;;9.40;99.90;;;;;;5113814;28;20011;-75
2024/03/12 11:41:16;;;;;;;4.37;1.50;;;9.40;99.90;;;;;;5109090;27;20439;-75
2024/03/12 11:43:42;;;;;;;2.63;1.40;;;9.40;99.90;;;;;;5119861;27;20038;-75
2024/03/12 11:46:39;;;;;;;4.67;1.93;;;9.50;99.90;;;;;;5132667;27;20483;-74
2024/03/12 11:49:06;;;;;;;4.73;1.50;;;9.60;99.90;;;;;;5133299;27;20027;-75
2024/03/12 11:51:57;;;;;;;2.50;1.60;;;9.70;99.90;;;;;;5130064;27;20019;-75
2024/03/12 11:54:44;;;;;;;3.77;1.83;;;9.80;99.90;;;;;;5133110;27;20106;-74
2024/03/12 11:57:24;;;;;;;1.80;1.40;;;9.80;99.90;;;;;;5133310;27;20042;-75
2024/03/12 11:59:50;;;;;;;2.93;1.40;;;9.80;99.90;;;;;;5133869;27;20122;-75
2024/03/12 12:02:20;;;;;;;2.30;1.50;;;9.70;99.90;;;;;;5129682;27;20061;-75
2024/03/12 12:04:52;;;;;;;11.10;1.40;;;9.60;99.90;;;;;;5132909;27;20026;-75
2024/03/12 12:07:21;;;;;;;2.03;1.37;;;9.50;99.90;;;;;;5132887;27;20031;-74
2024/03/12 12:09:51;;;;;;;4.40;1.53;;;9.40;99.90;;;;;;5133556;27;20015;-75
2024/03/12 12:12:17;;;;;;;4.73;1.43;;;9.50;99.90;;;;;;5129592;27;20751;-75
2024/03/12 12:14:44;;;;;;;2.73;1.40;;;9.60;99.90;;;;;;5122671;27;20028;-75
2024/03/12 12:17:11;;;;;;;2.17;1.40;;;9.70;99.90;;;;;;5121574;27;20084;-75
2024/03/12 12:19:37;;;;;;;1.77;1.20;;;9.80;99.90;;;;;;5120217;27;20030;-75
2024/03/12 12:22:04;;;;;;;2.33;1.17;;;9.90;99.90;;;;;;5119514;27;20011;-75
2024/03/12 12:24:31;;;;;;;1.37;1.00;;;10.00;99.90;;;;;;5124636;27;20160;-75
2024/03/12 12:26:57;;;;;;;1.70;1.10;;;10.10;99.90;;;;;;5132398;27;20037;-75
2024/03/12 12:29:25;;;;;;;1.83;1.17;;;10.20;99.90;;;;;;5132738;27;20102;-75
2024/03/12 12:31:52;;;;;;;6.97;1.20;;;10.30;99.90;;;;;;5129178;27;20035;-74
2024/03/12 12:34:20;;;;;;;2.63;1.10;;;10.40;99.90;;;;;;5132208;27;20487;-75
2024/03/12 12:36:46;;;;;;;2.87;1.03;;;10.40;99.90;;;;;;5132289;27;20102;-76
2024/03/12 12:39:14;;;;;;;1.90;1.30;;;10.40;99.90;;;;;;5132618;27;20119;-74
2024/03/12 12:41:44;;;;;;;1.47;1.00;;;10.50;99.90;;;;;;5118625;27;20500;-75
2024/03/12 12:44:20;;;;;;;1.03;0.90;;;10.50;99.90;;;;;;5126650;27;20391;-75
2024/03/12 12:46:47;;;;;;;2.40;1.23;;;10.40;99.90;;;;;;5121962;27;20035;-76
2024/03/12 12:49:14;;;;;;;3.07;1.50;;;10.50;99.90;;;;;;5131192;27;20585;-74
2024/03/12 12:51:41;;;;;;;2.87;1.57;;;10.40;99.90;;;;;;5122532;27;20031;-75
2024/03/12 12:54:07;;;;;;;2.00;1.20;;;10.30;99.90;;;;;;5125968;27;20030;-75
2024/03/12 12:56:40;;;;;;;1.50;1.40;;;10.40;99.90;;;;;;5115706;27;20027;-75
2024/03/12 12:59:13;;;;;;;1.40;1.10;;;10.40;99.90;;;;;;5117147;27;20409;-75
2024/03/12 13:01:39;;;;;;;2.07;1.33;;;10.40;99.90;;;;;;5115356;27;20395;-75